Time;durP1;ratioP1;P1;durP2;ratioP2;P2;SDS_P1;SDS_P2;PMS_P1;PMS_P2;Temp;Humidity;BMP_temperature;BMP_pressure;BME280_temperature;BME280_humidity;BME280_pressure;Samples;Min_cycle;Max_cycle;Signal;HPM_P1;HPM_P2
2022/03/11 00:01:48;;;;;;;4.50;2.83;;;23.80;28.20;;;;;;5006008;28;20028;-51
2022/03/11 00:04:14;;;;;;;5.38;3.28;;;23.80;28.20;;;;;;5005747;28;20033;-51
2022/03/11 00:06:43;;;;;;;3.67;2.42;;;23.70;28.20;;;;;;5006602;28;20033;-51
2022/03/11 00:12:30;;;;;;;4.03;2.42;;;23.70;28.30;;;;;;5037715;28;20653;-51
2022/03/11 00:14:56;;;;;;;4.68;3.13;;;23.70;28.30;;;;;;5044506;28;20041;-51
2022/03/11 00:17:23;;;;;;;4.22;2.60;;;23.60;28.20;;;;;;5045032;28;20642;-51
2022/03/11 00:19:48;;;;;;;4.80;3.08;;;23.60;28.30;;;;;;5053997;28;20024;-50
2022/03/11 00:22:14;;;;;;;4.57;3.00;;;23.60;28.20;;;;;;5065372;28;20021;-51
2022/03/11 00:24:41;;;;;;;4.15;2.65;;;23.60;28.20;;;;;;5063457;28;20595;-51
2022/03/11 00:27:06;;;;;;;4.28;2.75;;;23.60;28.20;;;;;;5063597;28;20017;-50
2022/03/11 00:29:32;;;;;;;5.10;3.20;;;23.60;28.20;;;;;;5063237;28;20024;-50
2022/03/11 00:31:58;;;;;;;4.43;2.65;;;23.50;28.20;;;;;;5064725;28;20115;-51
2022/03/11 00:34:23;;;;;;;4.20;2.80;;;23.50;28.20;;;;;;5064809;28;20028;-51
2022/03/11 00:36:49;;;;;;;4.40;2.72;;;23.50;28.20;;;;;;5063718;28;20032;-51
2022/03/11 00:39:15;;;;;;;4.28;2.85;;;23.50;28.20;;;;;;5064710;28;20441;-51
2022/03/11 00:41:41;;;;;;;4.38;2.70;;;23.50;28.20;;;;;;5065111;28;20031;-51
2022/03/11 00:44:07;;;;;;;4.30;2.75;;;23.50;28.20;;;;;;5062540;28;20178;-51
2022/03/11 00:46:33;;;;;;;4.50;2.78;;;23.50;28.20;;;;;;5063546;28;20090;-50
2022/03/11 00:48:58;;;;;;;4.78;2.97;;;23.50;28.20;;;;;;5061757;28;20550;-51
2022/03/11 00:51:24;;;;;;;4.38;3.10;;;23.50;28.30;;;;;;5064776;28;20546;-50
2022/03/11 00:53:50;;;;;;;4.38;2.80;;;23.50;28.30;;;;;;5065156;28;20100;-51
2022/03/11 00:56:15;;;;;;;4.10;2.53;;;23.40;28.90;;;;;;5063075;28;20013;-50
2022/03/11 00:58:41;;;;;;;4.78;2.97;;;23.40;28.20;;;;;;5064403;28;20483;-50
2022/03/11 01:01:07;;;;;;;3.88;2.42;;;23.40;28.20;;;;;;5064694;28;20483;-50
2022/03/11 01:03:32;;;;;;;4.68;3.13;;;23.40;28.20;;;;;;5064859;28;20024;-50
2022/03/11 01:05:58;;;;;;;4.70;2.85;;;23.40;28.20;;;;;;5063132;28;20028;-50
2022/03/11 01:08:24;;;;;;;4.25;2.72;;;23.40;28.20;;;;;;5064514;28;20020;-50
2022/03/11 01:10:50;;;;;;;4.78;2.90;;;23.40;28.20;;;;;;5064193;28;20035;-50
2022/03/11 01:13:16;;;;;;;3.55;2.25;;;23.30;28.20;;;;;;5064566;28;20052;-50
2022/03/11 01:15:42;;;;;;;4.25;2.80;;;23.30;28.20;;;;;;5063101;28;20025;-50
2022/03/11 01:18:07;;;;;;;4.53;2.97;;;23.30;28.20;;;;;;5064567;28;20021;-50
2022/03/11 01:20:33;;;;;;;4.88;2.85;;;23.30;28.20;;;;;;5060075;28;20131;-50
2022/03/11 01:22:59;;;;;;;4.22;2.50;;;23.30;28.30;;;;;;5064589;28;20074;-51
2022/03/11 01:25:25;;;;;;;4.03;2.42;;;23.30;28.30;;;;;;5064315;28;20103;-50
2022/03/11 01:27:50;;;;;;;4.55;2.65;;;23.30;28.20;;;;;;5063193;28;20028;-52
2022/03/11 01:30:16;;;;;;;4.20;2.72;;;23.30;28.30;;;;;;5063649;28;20033;-51
2022/03/11 01:32:43;;;;;;;3.70;2.30;;;23.20;28.20;;;;;;5064380;28;20048;-50
2022/03/11 01:35:10;;;;;;;3.95;2.47;;;23.20;28.20;;;;;;5063778;28;20051;-51
2022/03/11 01:37:35;;;;;;;4.28;2.80;;;23.20;28.20;;;;;;5064515;28;20052;-50
2022/03/11 01:40:03;;;;;;;3.90;2.63;;;23.30;28.30;;;;;;5064437;28;20059;-51
2022/03/11 01:42:29;;;;;;;3.78;2.35;;;23.30;28.30;;;;;;5068516;28;20082;-51
2022/03/11 01:44:54;;;;;;;4.15;2.42;;;23.20;28.20;;;;;;5068237;28;20643;-51
2022/03/11 01:47:20;;;;;;;3.67;2.20;;;23.30;28.30;;;;;;5067843;28;20041;-51
2022/03/11 01:49:46;;;;;;;3.97;2.42;;;23.20;28.20;;;;;;5067232;28;20070;-52
2022/03/11 01:52:12;;;;;;;4.25;2.60;;;23.20;28.20;;;;;;5068432;28;20052;-50
2022/03/11 01:54:41;;;;;;;4.30;2.55;;;23.20;28.20;;;;;;5066627;28;20510;-50
2022/03/11 01:57:08;;;;;;;4.45;2.70;;;23.20;28.20;;;;;;5068256;28;20082;-50
2022/03/11 01:59:34;;;;;;;4.00;2.60;;;23.20;28.20;;;;;;5067752;28;20561;-50
2022/03/11 02:02:00;;;;;;;4.25;2.63;;;23.20;28.20;;;;;;5068510;28;20540;-51
2022/03/11 02:04:25;;;;;;;4.32;2.85;;;23.10;28.30;;;;;;5066850;28;20025;-50
2022/03/11 02:06:52;;;;;;;3.55;2.03;;;23.10;28.30;;;;;;5068124;28;20036;-50
2022/03/11 02:09:18;;;;;;;4.53;2.65;;;23.10;28.30;;;;;;5067323;28;20029;-51
2022/03/11 02:11:46;;;;;;;3.75;2.25;;;23.10;28.30;;;;;;5067932;28;20829;-50
2022/03/11 02:14:12;;;;;;;3.63;2.03;;;23.10;28.30;;;;;;5067840;28;20016;-50
2022/03/11 02:16:40;;;;;;;3.63;2.40;;;23.10;28.30;;;;;;5067765;28;20249;-51
2022/03/11 02:19:05;;;;;;;3.95;2.47;;;23.00;28.20;;;;;;5067397;28;20036;-51
2022/03/11 02:21:38;;;;;;;3.65;2.40;;;23.10;28.30;;;;;;5067152;28;20027;-51
2022/03/11 02:24:05;;;;;;;4.03;2.35;;;23.10;28.30;;;;;;5067848;28;20566;-51
2022/03/11 02:26:31;;;;;;;3.60;2.35;;;23.10;28.30;;;;;;5067491;28;20036;-51
2022/03/11 02:28:58;;;;;;;4.50;2.65;;;23.00;28.20;;;;;;5067499;28;20033;-50
2022/03/11 02:31:26;;;;;;;3.95;2.47;;;23.10;28.30;;;;;;5067497;28;20025;-50
2022/03/11 02:33:52;;;;;;;4.57;2.47;;;23.00;28.20;;;;;;5067702;28;20070;-51
2022/03/11 02:36:18;;;;;;;4.18;2.38;;;23.00;28.20;;;;;;5067193;28;20125;-50
2022/03/11 02:38:44;;;;;;;3.70;2.20;;;23.00;28.20;;;;;;5067158;28;20095;-51
2022/03/11 02:41:10;;;;;;;3.70;2.20;;;23.00;28.20;;;;;;5067511;28;20036;-50
2022/03/11 02:43:36;;;;;;;3.80;2.38;;;23.00;28.20;;;;;;5067045;28;20028;-51
2022/03/11 02:46:02;;;;;;;4.00;2.20;;;23.00;28.20;;;;;;5067372;28;20039;-49
2022/03/11 02:48:28;;;;;;;4.18;2.25;;;23.00;28.20;;;;;;5066950;28;20678;-51
2022/03/11 02:50:55;;;;;;;4.10;2.25;;;23.00;28.20;;;;;;5066674;28;20054;-50
2022/03/11 02:53:21;;;;;;;4.22;2.28;;;23.00;28.20;;;;;;5066040;28;20035;-51
2022/03/11 02:55:46;;;;;;;3.50;2.20;;;23.00;28.20;;;;;;5067288;28;20111;-50
2022/03/11 02:58:12;;;;;;;3.53;2.17;;;22.90;28.30;;;;;;5066696;28;20170;-50
2022/03/11 03:00:38;;;;;;;3.53;2.00;;;22.90;28.20;;;;;;5066701;28;20481;-51
2022/03/11 03:03:04;;;;;;;3.42;2.03;;;22.90;28.20;;;;;;5066718;28;20036;-51
2022/03/11 03:05:30;;;;;;;3.65;2.20;;;22.90;28.20;;;;;;5066322;28;20028;-51
2022/03/11 03:07:56;;;;;;;3.72;1.88;;;22.90;28.20;;;;;;5067005;28;20021;-51
2022/03/11 03:10:21;;;;;;;3.35;1.92;;;22.90;28.30;;;;;;5066289;28;20558;-50
2022/03/11 03:12:47;;;;;;;3.28;2.00;;;22.90;28.20;;;;;;5066951;28;20043;-50
2022/03/11 03:15:13;;;;;;;3.45;1.92;;;22.90;28.30;;;;;;5066829;28;20047;-51
2022/03/11 03:17:38;;;;;;;3.08;1.67;;;22.80;28.20;;;;;;5066762;28;20077;-51
2022/03/11 03:20:05;;;;;;;3.90;2.20;;;22.80;28.20;;;;;;5066254;28;20403;-51
2022/03/11 03:22:31;;;;;;;3.80;2.30;;;22.80;28.90;;;;;;5066685;28;20837;-50
2022/03/11 03:24:57;;;;;;;3.75;2.30;;;22.80;28.20;;;;;;5066991;28;20033;-50
2022/03/11 03:27:23;;;;;;;3.80;2.13;;;22.80;28.20;;;;;;5066462;28;20487;-51
2022/03/11 03:29:49;;;;;;;3.67;2.28;;;22.80;28.20;;;;;;5066036;28;20032;-50
2022/03/11 03:32:14;;;;;;;3.65;2.08;;;22.80;28.20;;;;;;5066085;28;20218;-51
2022/03/11 03:34:40;;;;;;;3.25;1.83;;;22.80;28.20;;;;;;5064824;28;20119;-50
2022/03/11 03:37:09;;;;;;;3.00;1.77;;;22.80;28.20;;;;;;5066614;28;20285;-51
2022/03/11 03:39:36;;;;;;;3.42;2.05;;;22.80;28.20;;;;;;5066492;28;20039;-51
2022/03/11 03:42:03;;;;;;;3.15;1.75;;;22.80;28.20;;;;;;5066458;28;20103;-51
2022/03/11 03:44:28;;;;;;;3.10;1.85;;;22.80;28.20;;;;;;5066287;28;20025;-50
2022/03/11 03:46:54;;;;;;;3.65;2.20;;;22.80;28.20;;;;;;5065654;28;20706;-51
2022/03/11 03:49:20;;;;;;;2.88;1.70;;;22.80;28.20;;;;;;5065824;28;20746;-50
2022/03/11 03:51:46;;;;;;;3.50;1.95;;;22.80;28.20;;;;;;5064560;28;20017;-51
2022/03/11 03:54:12;;;;;;;3.47;1.92;;;22.70;28.20;;;;;;5065588;28;20033;-50
2022/03/11 03:56:41;;;;;;;3.55;1.98;;;22.70;28.20;;;;;;5065768;28;20695;-50
2022/03/11 03:59:08;;;;;;;2.88;1.60;;;22.70;28.20;;;;;;5064907;28;20399;-50
2022/03/11 04:01:37;;;;;;;3.67;1.90;;;22.70;28.20;;;;;;5065897;28;20065;-51
2022/03/11 04:04:04;;;;;;;3.50;1.67;;;22.70;28.20;;;;;;5064766;28;20024;-51
2022/03/11 04:06:31;;;;;;;3.17;1.88;;;22.70;28.20;;;;;;5065198;28;20134;-51
2022/03/11 04:08:57;;;;;;;3.33;1.77;;;22.70;28.20;;;;;;5064178;28;20069;-51
2022/03/11 04:11:27;;;;;;;3.08;2.00;;;22.70;28.20;;;;;;5065038;28;20105;-51
2022/03/11 04:13:54;;;;;;;3.35;1.90;;;22.70;28.20;;;;;;5065410;28;20025;-51
2022/03/11 04:16:20;;;;;;;3.42;1.83;;;22.70;28.20;;;;;;5065047;28;20644;-50
2022/03/11 04:18:46;;;;;;;2.90;1.60;;;22.70;28.20;;;;;;5064314;28;20141;-50
2022/03/11 04:21:13;;;;;;;2.47;1.42;;;22.60;28.10;;;;;;5064447;28;20075;-50
2022/03/11 04:23:40;;;;;;;2.83;1.40;;;22.60;28.10;;;;;;5064867;28;20121;-50
2022/03/11 04:26:06;;;;;;;3.30;1.85;;;22.60;28.10;;;;;;5064959;28;20048;-50
2022/03/11 04:28:32;;;;;;;3.72;1.73;;;22.60;28.10;;;;;;5064979;28;20268;-51
2022/03/11 04:30:59;;;;;;;4.22;2.10;;;22.60;28.10;;;;;;5065239;28;20161;-50
2022/03/11 04:33:25;;;;;;;2.92;1.63;;;22.60;28.10;;;;;;5063898;28;20020;-51
2022/03/11 04:35:51;;;;;;;2.80;1.55;;;22.60;28.10;;;;;;5065115;28;20071;-50
2022/03/11 04:38:17;;;;;;;3.08;1.65;;;22.60;28.10;;;;;;5064996;28;20705;-50
2022/03/11 04:40:42;;;;;;;2.78;1.65;;;22.60;28.10;;;;;;5063671;28;20027;-50
2022/03/11 04:43:08;;;;;;;4.88;2.08;;;22.60;28.10;;;;;;5065158;28;20075;-50
2022/03/11 04:45:34;;;;;;;3.38;1.77;;;22.60;28.10;;;;;;5065269;28;20518;-51
2022/03/11 04:48:00;;;;;;;2.80;1.77;;;22.50;28.10;;;;;;5064730;28;20027;-50
2022/03/11 04:50:26;;;;;;;3.35;1.83;;;22.50;28.10;;;;;;5064514;28;20030;-50
2022/03/11 04:52:52;;;;;;;3.25;1.70;;;22.50;28.10;;;;;;5064610;28;20078;-51
2022/03/11 04:55:18;;;;;;;3.13;1.73;;;22.50;28.10;;;;;;5064861;28;20033;-50
2022/03/11 04:57:44;;;;;;;3.45;1.77;;;22.50;28.10;;;;;;5064518;28;20025;-50
2022/03/11 05:00:11;;;;;;;2.80;1.50;;;22.50;28.10;;;;;;5064456;28;20036;-51
2022/03/11 05:02:37;;;;;;;3.40;1.70;;;22.50;28.10;;;;;;5064700;28;20039;-50
2022/03/11 05:05:07;;;;;;;3.25;1.70;;;22.50;28.10;;;;;;5064465;28;20669;-51
2022/03/11 05:07:36;;;;;;;3.08;1.80;;;22.50;28.10;;;;;;5062724;28;20021;-51
2022/03/11 05:10:02;;;;;;;3.38;1.95;;;22.50;28.10;;;;;;5062178;28;20021;-51
2022/03/11 05:12:28;;;;;;;3.22;1.70;;;22.50;28.10;;;;;;5060899;28;20132;-51
2022/03/11 05:14:53;;;;;;;3.42;1.90;;;22.40;28.00;;;;;;5061182;28;20442;-51
2022/03/11 05:17:20;;;;;;;3.10;1.70;;;22.40;28.00;;;;;;5062018;28;20717;-51
2022/03/11 05:19:45;;;;;;;3.05;1.70;;;22.40;28.00;;;;;;5063128;28;20039;-51
2022/03/11 05:22:11;;;;;;;2.85;1.52;;;22.40;28.10;;;;;;5061622;28;20099;-51
2022/03/11 05:24:38;;;;;;;3.50;2.10;;;22.40;28.10;;;;;;5063693;28;20032;-51
2022/03/11 05:27:05;;;;;;;2.97;1.70;;;22.40;28.00;;;;;;5063621;28;20035;-50
2022/03/11 05:29:32;;;;;;;3.13;1.60;;;22.40;28.10;;;;;;5063043;28;20017;-50
2022/03/11 05:31:59;;;;;;;3.53;1.80;;;22.50;28.70;;;;;;5063239;28;20012;-49
2022/03/11 05:34:24;;;;;;;3.15;1.80;;;22.50;29.20;;;;;;5061622;28;20537;-50
2022/03/11 05:36:50;;;;;;;6.80;1.70;;;22.60;29.50;;;;;;5053730;28;20040;-50
2022/03/11 05:39:16;;;;;;;3.63;1.85;;;22.60;29.70;;;;;;5062581;28;20032;-51
2022/03/11 05:41:42;;;;;;;5.07;2.40;;;22.70;29.80;;;;;;5069086;28;20099;-51
2022/03/11 05:44:08;;;;;;;4.97;2.28;;;22.70;29.80;;;;;;5084173;28;20056;-50
2022/03/11 05:46:34;;;;;;;4.68;2.47;;;22.80;29.80;;;;;;5082683;28;20442;-49
2022/03/11 05:49:00;;;;;;;3.42;1.90;;;22.90;30.00;;;;;;5063216;28;20086;-50
2022/03/11 05:51:25;;;;;;;5.72;2.10;;;23.00;29.70;;;;;;5063188;28;20028;-50
2022/03/11 05:53:51;;;;;;;3.85;2.10;;;23.00;29.50;;;;;;5068023;28;20553;-50
2022/03/11 05:56:17;;;;;;;3.45;1.73;;;23.10;29.50;;;;;;5083246;28;20028;-51
2022/03/11 05:58:42;;;;;;;3.95;2.03;;;23.20;29.30;;;;;;5083414;28;20032;-50
2022/03/11 06:01:08;;;;;;;3.65;1.67;;;23.30;29.20;;;;;;5073290;28;20028;-50
2022/03/11 06:03:34;;;;;;;3.78;1.75;;;23.30;29.10;;;;;;5063395;28;20555;-51
2022/03/11 06:06:00;;;;;;;4.30;1.90;;;23.40;28.90;;;;;;5062284;28;20037;-51
2022/03/11 06:08:25;;;;;;;4.10;2.10;;;23.50;28.90;;;;;;5063317;28;20024;-51
2022/03/11 06:10:51;;;;;;;3.22;1.63;;;23.50;28.90;;;;;;5062592;28;20051;-50
2022/03/11 06:13:17;;;;;;;3.85;1.90;;;23.60;28.80;;;;;;5061392;28;20044;-51
2022/03/11 06:15:43;;;;;;;4.65;2.28;;;23.70;28.80;;;;;;5061301;28;20078;-50
2022/03/11 06:18:12;;;;;;;3.47;1.75;;;23.80;28.90;;;;;;5063125;28;20017;-52
2022/03/11 06:20:38;;;;;;;3.80;1.52;;;23.80;28.80;;;;;;5061683;28;20033;-51
2022/03/11 06:23:04;;;;;;;5.22;2.35;;;23.80;28.80;;;;;;5062614;28;20083;-51
2022/03/11 06:25:30;;;;;;;4.82;2.13;;;23.90;28.80;;;;;;5061460;28;20526;-51
2022/03/11 06:27:55;;;;;;;4.03;2.13;;;24.00;28.70;;;;;;5066394;28;20036;-50
2022/03/11 06:30:21;;;;;;;4.78;1.90;;;24.00;28.70;;;;;;5067155;28;20093;-51
2022/03/11 06:32:48;;;;;;;4.35;2.35;;;24.10;28.70;;;;;;5067308;28;20451;-51
2022/03/11 06:35:15;;;;;;;4.63;2.35;;;24.20;28.60;;;;;;5067010;28;20095;-51
2022/03/11 06:37:46;;;;;;;6.22;2.83;;;24.20;28.60;;;;;;5060938;28;20033;-51
2022/03/11 06:40:13;;;;;;;4.63;2.17;;;24.30;28.60;;;;;;5058855;28;20028;-51
2022/03/11 06:42:44;;;;;;;5.07;2.10;;;24.30;28.40;;;;;;5066741;28;20024;-51
2022/03/11 06:45:11;;;;;;;4.72;2.25;;;24.40;28.40;;;;;;5045960;28;20700;-51
2022/03/11 06:47:37;;;;;;;5.72;2.40;;;24.50;28.40;;;;;;5047104;28;20033;-51
2022/03/11 06:50:04;;;;;;;5.47;1.60;;;24.50;28.30;;;;;;5049987;28;20029;-51
2022/03/11 06:52:31;;;;;;;4.40;1.77;;;24.50;28.20;;;;;;5067090;28;20039;-51
2022/03/11 06:54:57;;;;;;;5.07;2.22;;;24.60;28.00;;;;;;5065633;28;20055;-51
2022/03/11 06:57:22;;;;;;;4.00;2.00;;;24.70;28.00;;;;;;5047329;28;20456;-51
2022/03/11 06:59:49;;;;;;;3.55;1.73;;;24.70;28.00;;;;;;5056000;28;20064;-52
2022/03/11 07:02:15;;;;;;;4.15;2.00;;;24.70;27.90;;;;;;5066954;28;20028;-51
2022/03/11 07:04:41;;;;;;;3.67;1.58;;;24.80;27.80;;;;;;5066368;28;20025;-51
2022/03/11 07:07:07;;;;;;;3.55;1.48;;;24.80;27.80;;;;;;5066409;28;20395;-51
2022/03/11 07:09:34;;;;;;;4.80;1.88;;;24.80;27.70;;;;;;5051916;28;20029;-51
2022/03/11 07:12:02;;;;;;;3.40;1.67;;;24.90;27.70;;;;;;5046893;28;20055;-51
2022/03/11 07:14:33;;;;;;;4.57;2.17;;;24.90;27.60;;;;;;5046737;28;20031;-51
2022/03/11 07:16:59;;;;;;;3.55;2.00;;;24.90;27.60;;;;;;5045057;28;20044;-52
2022/03/11 07:19:29;;;;;;;3.65;1.48;;;25.00;27.50;;;;;;5046528;28;20464;-52
2022/03/11 07:22:01;;;;;;;3.20;1.70;;;25.00;27.40;;;;;;5063251;28;20037;-51
2022/03/11 07:24:27;;;;;;;3.63;1.63;;;25.00;27.40;;;;;;5066602;28;20111;-51
2022/03/11 07:26:53;;;;;;;3.28;1.80;;;25.00;27.40;;;;;;5065645;28;20029;-51
2022/03/11 07:29:19;;;;;;;3.45;1.60;;;25.00;27.30;;;;;;5065969;28;20058;-51
2022/03/11 07:31:45;;;;;;;3.22;1.50;;;25.00;27.20;;;;;;5062408;28;20407;-52
2022/03/11 07:34:11;;;;;;;3.63;1.77;;;25.10;27.90;;;;;;5045672;28;20036;-52
2022/03/11 07:36:37;;;;;;;3.58;1.60;;;25.10;27.20;;;;;;5061087;28;20504;-50
2022/03/11 07:39:04;;;;;;;3.28;1.52;;;25.10;27.10;;;;;;5064944;28;20043;-51
2022/03/11 07:41:31;;;;;;;3.10;1.50;;;25.10;27.10;;;;;;5065352;28;20734;-51
2022/03/11 07:43:57;;;;;;;3.15;1.42;;;25.10;27.00;;;;;;5065359;28;20100;-52
2022/03/11 07:46:24;;;;;;;2.78;1.58;;;25.10;27.00;;;;;;5065532;28;20102;-52
2022/03/11 07:48:50;;;;;;;2.65;1.23;;;25.20;26.80;;;;;;5064644;28;20052;-51
2022/03/11 07:51:16;;;;;;;2.58;1.52;;;25.20;26.70;;;;;;5063590;28;20055;-51
2022/03/11 07:53:42;;;;;;;3.35;1.70;;;25.20;26.70;;;;;;5064950;28;20021;-51
2022/03/11 07:56:10;;;;;;;3.10;1.42;;;25.20;26.50;;;;;;5065609;28;20029;-52
2022/03/11 07:58:39;;;;;;;3.10;1.40;;;25.20;26.60;;;;;;5063295;28;20055;-52
2022/03/11 08:01:07;;;;;;;3.47;1.80;;;25.20;26.50;;;;;;5063909;28;20372;-53
2022/03/11 08:03:34;;;;;;;2.88;1.50;;;25.20;26.50;;;;;;5065313;28;20138;-53
2022/03/11 08:06:00;;;;;;;3.15;1.58;;;25.20;26.50;;;;;;5064985;28;20123;-53
2022/03/11 08:08:27;;;;;;;2.50;1.30;;;25.20;26.40;;;;;;5065542;28;20033;-52
2022/03/11 08:10:54;;;;;;;2.58;1.35;;;25.20;26.50;;;;;;5064360;28;20668;-51
2022/03/11 08:13:20;;;;;;;3.97;1.35;;;25.20;26.40;;;;;;5063943;28;20115;-51
2022/03/11 08:15:46;;;;;;;3.92;1.58;;;25.20;26.50;;;;;;5064918;28;20032;-52
2022/03/11 08:18:13;;;;;;;3.78;1.80;;;25.20;26.50;;;;;;5064906;28;20021;-52
2022/03/11 08:20:38;;;;;;;3.47;1.60;;;25.20;26.40;;;;;;5065088;28;20035;-51
2022/03/11 08:23:04;;;;;;;2.30;1.10;;;25.20;26.50;;;;;;5065226;28;20047;-51
2022/03/11 08:25:31;;;;;;;2.65;1.45;;;25.20;26.40;;;;;;5064582;28;20499;-52
2022/03/11 08:27:57;;;;;;;2.70;1.50;;;25.20;26.40;;;;;;5064608;28;20085;-52
2022/03/11 08:30:25;;;;;;;3.22;1.40;;;25.20;26.30;;;;;;5064207;28;20044;-52
2022/03/11 08:32:51;;;;;;;3.90;1.42;;;25.20;26.20;;;;;;5064221;28;20032;-52
2022/03/11 08:35:18;;;;;;;2.80;1.77;;;25.30;26.30;;;;;;5063557;28;20035;-52
2022/03/11 08:37:44;;;;;;;2.90;1.42;;;25.30;26.30;;;;;;5064080;28;20024;-52
2022/03/11 08:40:11;;;;;;;3.00;1.38;;;25.30;26.30;;;;;;5064406;28;20033;-52
2022/03/11 08:42:38;;;;;;;2.25;1.27;;;25.30;26.20;;;;;;5064293;28;20024;-52
2022/03/11 08:45:05;;;;;;;2.47;1.27;;;25.30;26.20;;;;;;5063193;28;20033;-51
2022/03/11 08:47:31;;;;;;;3.10;1.70;;;25.30;26.20;;;;;;5063301;28;20554;-53
2022/03/11 08:49:57;;;;;;;2.65;1.23;;;25.30;26.20;;;;;;5063349;28;20028;-52
2022/03/11 08:52:25;;;;;;;2.60;1.40;;;25.30;26.20;;;;;;5064269;28;20561;-52
2022/03/11 08:54:51;;;;;;;2.58;1.30;;;25.30;26.20;;;;;;5064267;28;20029;-52
2022/03/11 08:57:18;;;;;;;3.88;1.60;;;25.30;26.20;;;;;;5063547;28;20390;-52
2022/03/11 08:59:43;;;;;;;3.00;1.77;;;25.30;26.20;;;;;;5064537;28;20077;-52
2022/03/11 09:02:09;;;;;;;2.47;1.40;;;25.30;26.20;;;;;;5064694;28;20087;-52
2022/03/11 09:04:35;;;;;;;2.17;1.10;;;25.30;26.10;;;;;;5064983;28;20035;-52
2022/03/11 09:07:02;;;;;;;2.75;1.30;;;25.30;26.10;;;;;;5064279;28;20028;-52
2022/03/11 09:09:28;;;;;;;2.90;1.20;;;25.30;26.10;;;;;;5064211;28;20113;-52
2022/03/11 09:11:54;;;;;;;2.70;1.15;;;25.30;26.10;;;;;;5064561;28;20043;-51
2022/03/11 09:14:20;;;;;;;2.53;1.30;;;25.30;26.10;;;;;;5062721;28;20024;-52
2022/03/11 09:16:45;;;;;;;3.35;1.70;;;25.30;26.00;;;;;;5063974;28;20060;-52
2022/03/11 09:19:12;;;;;;;3.20;1.40;;;25.30;26.00;;;;;;5064522;28;20459;-52
2022/03/11 09:21:38;;;;;;;2.80;1.45;;;25.30;26.00;;;;;;5064049;28;20128;-51
2022/03/11 09:24:04;;;;;;;2.75;1.40;;;25.30;26.00;;;;;;5064619;28;20499;-52
2022/03/11 09:26:29;;;;;;;2.80;1.23;;;25.30;25.90;;;;;;5064094;28;20107;-51
2022/03/11 09:28:55;;;;;;;2.35;1.20;;;25.40;26.00;;;;;;5063585;28;20029;-52
2022/03/11 09:31:21;;;;;;;2.65;1.40;;;25.40;25.90;;;;;;5064275;28;20025;-52
2022/03/11 09:33:47;;;;;;;2.78;1.33;;;25.40;26.00;;;;;;5064509;28;20029;-52
2022/03/11 09:36:13;;;;;;;2.08;1.20;;;25.40;26.00;;;;;;5064624;28;20032;-52
2022/03/11 09:38:39;;;;;;;2.95;1.60;;;25.40;25.90;;;;;;5062690;28;20024;-51
2022/03/11 09:41:06;;;;;;;2.83;1.30;;;25.40;25.90;;;;;;5064398;28;20024;-52
2022/03/11 09:43:33;;;;;;;2.47;1.20;;;25.40;25.90;;;;;;5064395;28;20028;-52
2022/03/11 09:45:59;;;;;;;2.60;1.30;;;25.40;25.90;;;;;;5064966;28;20032;-52
2022/03/11 09:48:25;;;;;;;1.95;1.00;;;25.40;25.90;;;;;;5064578;28;20037;-52
2022/03/11 09:50:51;;;;;;;2.42;1.23;;;25.40;25.90;;;;;;5063968;28;20052;-52
2022/03/11 09:53:18;;;;;;;2.97;1.73;;;25.40;25.90;;;;;;5062956;28;20644;-52
2022/03/11 09:55:44;;;;;;;2.63;1.40;;;25.40;25.80;;;;;;5063894;28;20041;-51
2022/03/11 09:58:10;;;;;;;3.72;1.55;;;25.40;25.90;;;;;;5064061;28;20028;-51
2022/03/11 10:00:37;;;;;;;2.65;1.52;;;25.40;25.90;;;;;;5063890;28;20383;-51
2022/03/11 10:03:03;;;;;;;1.98;1.17;;;25.40;25.80;;;;;;5066451;28;20033;-52
2022/03/11 10:05:55;;;;;;;2.28;1.25;;;25.40;25.90;;;;;;5067820;28;20073;-51
2022/03/11 10:08:34;;;;;;;2.95;1.40;;;25.40;25.80;;;;;;5064977;28;20043;-51
2022/03/11 10:11:20;;;;;;;2.28;1.27;;;25.40;25.80;;;;;;5067442;28;20052;-52
2022/03/11 10:13:46;;;;;;;3.08;1.25;;;25.40;25.80;;;;;;5068302;28;20681;-52
2022/03/11 10:16:26;;;;;;;2.85;1.33;;;25.40;25.80;;;;;;5067759;28;20024;-51
2022/03/11 10:18:59;;;;;;;2.63;1.50;;;25.40;25.80;;;;;;5067217;28;20107;-51
2022/03/11 10:21:28;;;;;;;2.33;1.30;;;25.40;25.70;;;;;;5067533;28;20071;-51
2022/03/11 10:23:54;;;;;;;2.22;1.17;;;25.40;25.70;;;;;;5065691;28;20115;-51
2022/03/11 10:26:52;;;;;;;2.70;1.40;;;25.40;25.80;;;;;;5067588;28;20108;-52
2022/03/11 10:29:20;;;;;;;2.78;0.98;;;25.40;25.80;;;;;;5066561;28;20746;-52
2022/03/11 10:31:52;;;;;;;2.10;1.08;;;25.40;25.70;;;;;;5065311;28;20025;-52
2022/03/11 10:34:33;;;;;;;2.42;1.15;;;25.40;25.70;;;;;;5067279;28;20028;-51
2022/03/11 10:37:09;;;;;;;2.55;1.23;;;25.40;25.70;;;;;;5067287;28;20029;-51
2022/03/11 10:39:37;;;;;;;2.97;1.00;;;25.40;25.80;;;;;;5065256;28;20032;-51
2022/03/11 10:42:24;;;;;;;1.92;0.95;;;25.40;25.70;;;;;;5067156;28;20064;-51
2022/03/11 10:45:05;;;;;;;2.00;1.10;;;25.40;25.70;;;;;;5067403;28;20104;-51
2022/03/11 10:47:36;;;;;;;2.47;1.35;;;25.40;25.70;;;;;;5065710;28;20032;-52
2022/03/11 10:50:16;;;;;;;2.55;1.25;;;25.40;25.70;;;;;;5066472;28;20143;-51
2022/03/11 10:52:43;;;;;;;2.30;1.15;;;25.40;25.70;;;;;;5047086;28;20025;-51
2022/03/11 10:55:19;;;;;;;2.60;1.13;;;25.40;25.70;;;;;;5062625;28;20502;-51
2022/03/11 10:57:45;;;;;;;2.40;1.20;;;25.40;25.70;;;;;;5064973;28;20078;-51
2022/03/11 11:00:29;;;;;;;2.70;1.20;;;25.40;25.60;;;;;;5066622;28;20029;-51
2022/03/11 11:02:59;;;;;;;2.03;1.17;;;25.40;25.70;;;;;;5065378;28;20075;-52
2022/03/11 11:05:26;;;;;;;2.22;1.05;;;25.40;25.70;;;;;;5067025;28;20067;-52
2022/03/11 11:07:53;;;;;;;1.92;0.90;;;25.40;25.70;;;;;;5066785;28;20041;-51
2022/03/11 11:10:21;;;;;;;1.70;0.95;;;25.50;25.70;;;;;;5066011;28;20063;-54
2022/03/11 11:12:48;;;;;;;2.35;1.10;;;25.40;25.70;;;;;;5065658;28;20395;-51
2022/03/11 11:15:17;;;;;;;2.80;1.50;;;25.40;25.70;;;;;;5066227;28;20067;-51
2022/03/11 11:17:44;;;;;;;2.30;1.02;;;25.40;26.30;;;;;;5064906;28;20021;-50
2022/03/11 11:20:33;;;;;;;2.47;1.42;;;25.50;25.60;;;;;;5066634;28;20029;-52
2022/03/11 11:23:04;;;;;;;2.50;1.00;;;25.50;26.40;;;;;;5066904;28;20040;-52
2022/03/11 11:25:29;;;;;;;2.30;1.10;;;25.50;25.60;;;;;;5066437;28;20038;-52
2022/03/11 11:27:57;;;;;;;2.15;1.20;;;25.50;25.60;;;;;;5066674;28;20554;-52
2022/03/11 11:30:25;;;;;;;2.17;1.02;;;25.50;25.60;;;;;;5066466;28;20509;-51
2022/03/11 11:32:52;;;;;;;2.78;1.40;;;25.50;25.60;;;;;;5066558;28;20036;-51
2022/03/11 11:35:34;;;;;;;3.08;1.50;;;25.50;25.60;;;;;;5065671;28;20472;-50
2022/03/11 11:38:02;;;;;;;5.15;1.60;;;25.50;25.50;;;;;;5066303;28;20036;-52
2022/03/11 11:40:32;;;;;;;4.25;1.63;;;25.50;25.50;;;;;;5065724;28;20032;-51
2022/03/11 11:43:34;;;;;;;2.67;1.27;;;25.50;25.80;;;;;;5064248;28;20040;-51
2022/03/11 11:46:11;;;;;;;2.85;1.15;;;25.50;25.90;;;;;;5056746;28;20071;-51
2022/03/11 11:48:45;;;;;;;3.00;1.50;;;25.50;25.80;;;;;;5065271;28;20105;-50
2022/03/11 11:51:13;;;;;;;2.30;1.17;;;25.50;25.90;;;;;;5053182;28;20033;-51
2022/03/11 11:53:42;;;;;;;2.40;1.10;;;25.50;26.00;;;;;;5064885;28;20031;-52
2022/03/11 11:56:33;;;;;;;2.53;1.30;;;25.50;25.90;;;;;;5065048;28;20645;-53
2022/03/11 11:59:02;;;;;;;3.25;1.23;;;25.50;26.00;;;;;;5063737;28;20062;-52
2022/03/11 12:01:47;;;;;;;3.78;1.08;;;25.50;26.00;;;;;;5064164;28;20241;-52
2022/03/11 12:04:25;;;;;;;2.95;1.33;;;25.50;26.10;;;;;;5064021;28;20032;-52
2022/03/11 12:06:55;;;;;;;2.42;1.33;;;25.50;26.00;;;;;;5065418;28;20119;-52
2022/03/11 12:09:42;;;;;;;2.80;1.50;;;25.50;26.10;;;;;;5064755;28;20039;-52
2022/03/11 12:12:20;;;;;;;2.10;1.20;;;25.50;26.20;;;;;;5063305;28;20028;-51
2022/03/11 12:17:42;;;;;;;2.28;1.20;;;25.50;26.20;;;;;;5053878;28;20400;-52
2022/03/11 12:20:35;;;;;;;2.33;1.23;;;25.50;26.80;;;;;;5049750;28;20033;-52
2022/03/11 12:23:06;;;;;;;2.47;1.17;;;25.50;26.20;;;;;;5062649;28;20043;-52
2022/03/11 12:25:58;;;;;;;3.45;1.30;;;25.50;26.20;;;;;;5064525;28;20056;-52
2022/03/11 12:28:33;;;;;;;2.67;1.15;;;25.60;26.20;;;;;;5065341;28;20063;-51
2022/03/11 12:31:21;;;;;;;2.20;1.10;;;25.60;26.20;;;;;;5064310;28;20029;-52
2022/03/11 12:33:49;;;;;;;3.45;1.13;;;25.60;26.20;;;;;;5064985;28;20029;-51
2022/03/11 12:36:20;;;;;;;2.13;1.10;;;25.60;26.10;;;;;;5058578;28;20053;-51
2022/03/11 12:38:46;;;;;;;2.10;0.90;;;25.60;26.10;;;;;;5063302;28;20043;-50
2022/03/11 12:41:15;;;;;;;2.22;1.23;;;25.70;26.10;;;;;;5063390;28;20050;-50
2022/03/11 12:43:43;;;;;;;2.75;1.30;;;25.70;26.00;;;;;;5064979;28;20031;-51
2022/03/11 12:46:10;;;;;;;2.15;1.00;;;25.70;26.00;;;;;;5064466;28;20031;-50
2022/03/11 12:48:38;;;;;;;1.88;0.90;;;25.70;25.90;;;;;;5063190;28;20032;-51
2022/03/11 12:51:24;;;;;;;2.03;1.05;;;25.80;25.80;;;;;;5062812;28;20123;-51
2022/03/11 12:53:51;;;;;;;2.45;1.20;;;25.80;25.80;;;;;;5064338;28;20108;-50
2022/03/11 12:56:18;;;;;;;1.83;1.17;;;25.80;25.70;;;;;;5064386;28;20029;-51
2022/03/11 12:58:47;;;;;;;2.25;1.10;;;25.80;25.70;;;;;;5062118;28;20058;-53